Time;durP1;ratioP1;P1;durP2;ratioP2;P2;SDS_P1;SDS_P2;PMS_P1;PMS_P2;Temp;Humidity;BMP_temperature;BMP_pressure;BME280_temperature;BME280_humidity;BME280_pressure;Samples;Min_cycle;Max_cycle;Signal;HPM_P1;HPM_P2
2023/09/27 00:00:22;;;;;;;36.42;21.60;;;16.60;99.90;;;;;;4939166;29;20211;-74
2023/09/27 00:02:49;;;;;;;25.92;20.98;;;16.60;99.90;;;;;;4956045;29;20282;-73
2023/09/27 00:05:16;;;;;;;27.90;21.20;;;16.60;99.90;;;;;;4956191;29;20651;-74
2023/09/27 00:07:42;;;;;;;28.00;21.02;;;16.50;99.90;;;;;;4939763;29;20294;-73
2023/09/27 00:10:09;;;;;;;28.83;20.83;;;16.50;99.90;;;;;;4955890;29;20285;-73
2023/09/27 00:12:36;;;;;;;31.45;20.75;;;16.50;99.90;;;;;;4936224;29;20217;-76
2023/09/27 00:15:02;;;;;;;26.80;20.17;;;16.50;99.90;;;;;;4954431;29;20194;-74
2023/09/27 00:17:30;;;;;;;33.25;22.10;;;16.50;99.90;;;;;;4956363;29;20238;-73
2023/09/27 00:19:56;;;;;;;35.42;20.75;;;16.50;99.90;;;;;;4955835;29;20265;-73
2023/09/27 00:22:24;;;;;;;29.63;20.98;;;16.50;99.90;;;;;;4953654;29;20597;-74
2023/09/27 00:24:51;;;;;;;29.75;21.17;;;16.50;99.90;;;;;;4953902;29;20197;-72
2023/09/27 00:27:17;;;;;;;29.17;21.17;;;16.50;99.90;;;;;;4955909;29;20257;-73
2023/09/27 00:29:43;;;;;;;30.95;20.65;;;16.50;99.90;;;;;;4955872;29;20187;-73
2023/09/27 00:32:09;;;;;;;33.75;21.88;;;16.50;99.90;;;;;;4947374;29;20685;-73
2023/09/27 00:34:35;;;;;;;30.38;20.98;;;16.50;99.90;;;;;;4954336;29;20194;-73
2023/09/27 00:37:01;;;;;;;28.35;20.83;;;16.50;99.90;;;;;;4938659;29;20183;-73
2023/09/27 00:39:27;;;;;;;28.83;21.75;;;16.50;99.90;;;;;;4955827;29;20214;-73
2023/09/27 00:41:53;;;;;;;31.02;22.20;;;16.50;99.90;;;;;;4955828;29;20273;-73
2023/09/27 00:44:19;;;;;;;28.17;21.42;;;16.50;99.90;;;;;;4951445;29;20571;-74
2023/09/27 00:46:45;;;;;;;28.98;21.48;;;16.40;99.90;;;;;;4968551;28;20217;-75
2023/09/27 00:49:14;;;;;;;28.23;21.67;;;16.40;99.90;;;;;;4953480;29;20197;-72
2023/09/27 00:51:40;;;;;;;28.02;21.60;;;16.40;99.90;;;;;;4938032;28;20186;-74
2023/09/27 00:54:07;;;;;;;28.30;21.67;;;16.40;99.90;;;;;;4956074;29;20277;-72
2023/09/27 00:56:34;;;;;;;32.25;21.80;;;16.40;99.90;;;;;;4955205;29;20317;-73
2023/09/27 00:59:01;;;;;;;27.98;21.30;;;16.40;99.90;;;;;;4953452;29;20190;-74
2023/09/27 01:01:28;;;;;;;32.03;21.70;;;16.30;99.90;;;;;;4951052;29;20558;-73
2023/09/27 01:03:54;;;;;;;28.45;21.98;;;16.30;99.90;;;;;;4952351;28;20190;-73
2023/09/27 01:06:20;;;;;;;28.30;22.23;;;16.30;99.90;;;;;;4922538;29;20190;-74
2023/09/27 01:08:46;;;;;;;29.48;21.42;;;16.30;99.90;;;;;;4938423;29;20651;-74
2023/09/27 01:11:13;;;;;;;31.50;21.85;;;16.30;99.90;;;;;;4935663;29;20709;-73
2023/09/27 01:13:39;;;;;;;31.77;22.50;;;16.30;99.90;;;;;;4955535;29;20198;-74
2023/09/27 01:16:05;;;;;;;29.80;22.30;;;16.30;99.90;;;;;;4955616;29;20248;-73
2023/09/27 01:18:31;;;;;;;26.80;21.10;;;16.30;99.90;;;;;;4956417;29;20199;-74
2023/09/27 01:20:57;;;;;;;31.10;22.42;;;16.20;99.90;;;;;;4950053;28;20230;-73
2023/09/27 01:23:23;;;;;;;28.83;21.85;;;16.20;99.90;;;;;;4938829;29;20198;-73
2023/09/27 01:25:55;;;;;;;28.63;22.05;;;16.20;99.90;;;;;;4953383;28;20197;-73
2023/09/27 01:28:21;;;;;;;29.42;22.75;;;16.20;99.90;;;;;;4955015;29;20603;-74
2023/09/27 01:30:47;;;;;;;27.25;21.83;;;16.20;99.90;;;;;;4937078;29;20194;-73
2023/09/27 01:33:13;;;;;;;31.50;21.83;;;16.20;99.90;;;;;;4922155;29;20198;-74
2023/09/27 01:35:41;;;;;;;28.10;22.02;;;16.20;99.90;;;;;;4936793;29;20436;-74
2023/09/27 01:38:08;;;;;;;25.70;21.45;;;16.20;99.90;;;;;;4937697;29;20194;-73
2023/09/27 01:40:42;;;;;;;29.08;21.45;;;16.20;99.90;;;;;;4934860;29;20265;-74
2023/09/27 01:43:11;;;;;;;27.95;22.15;;;16.20;99.90;;;;;;4951654;29;20182;-73
2023/09/27 01:45:38;;;;;;;31.15;21.15;;;16.20;99.90;;;;;;4954079;29;20206;-73
2023/09/27 01:48:04;;;;;;;31.77;22.88;;;16.10;99.90;;;;;;4921714;29;20265;-73
2023/09/27 01:50:34;;;;;;;31.10;22.48;;;16.10;99.90;;;;;;4936119;29;20199;-73
2023/09/27 01:53:00;;;;;;;30.80;22.25;;;16.10;99.90;;;;;;4950916;29;20178;-73
2023/09/27 01:55:26;;;;;;;29.75;22.60;;;16.10;99.90;;;;;;4952215;29;20620;-74
2023/09/27 01:57:53;;;;;;;31.20;22.15;;;16.10;99.90;;;;;;4952968;29;20202;-74
2023/09/27 02:00:20;;;;;;;31.08;22.52;;;16.10;99.90;;;;;;4952422;28;20222;-73
2023/09/27 02:02:55;;;;;;;33.83;22.63;;;16.10;99.90;;;;;;4949821;29;20817;-74
2023/09/27 02:05:22;;;;;;;34.67;23.92;;;16.00;99.90;;;;;;4936498;29;20643;-73
2023/09/27 02:07:48;;;;;;;30.23;23.80;;;16.00;99.90;;;;;;4954076;29;20195;-74
2023/09/27 02:10:14;;;;;;;33.78;23.75;;;16.00;99.90;;;;;;4952894;28;20197;-73
2023/09/27 02:12:41;;;;;;;31.20;23.33;;;16.00;99.90;;;;;;4934096;29;20202;-74
2023/09/27 02:15:08;;;;;;;32.03;23.40;;;15.90;99.90;;;;;;4951754;29;20197;-74
2023/09/27 02:17:35;;;;;;;37.25;25.70;;;15.90;99.90;;;;;;4920451;29;20238;-74
2023/09/27 02:20:07;;;;;;;32.13;24.17;;;15.90;99.90;;;;;;4921220;29;20206;-73
2023/09/27 02:22:37;;;;;;;33.38;24.50;;;15.80;99.90;;;;;;4935031;29;20648;-74
2023/09/27 02:25:09;;;;;;;38.03;25.40;;;15.80;99.90;;;;;;4952268;29;20205;-73
2023/09/27 02:27:37;;;;;;;30.55;24.83;;;15.80;99.90;;;;;;4935980;29;20265;-73
2023/09/27 02:30:06;;;;;;;33.78;25.13;;;15.80;99.90;;;;;;4936817;29;20662;-74
2023/09/27 02:32:33;;;;;;;34.15;25.15;;;15.80;99.90;;;;;;4952994;29;20190;-73
2023/09/27 02:35:00;;;;;;;37.75;25.80;;;15.70;99.90;;;;;;4966982;28;20191;-73
2023/09/27 02:37:26;;;;;;;33.13;25.55;;;15.70;99.90;;;;;;4935691;29;20249;-74
2023/09/27 02:39:52;;;;;;;36.13;25.95;;;15.70;99.90;;;;;;4953914;29;20222;-73
2023/09/27 02:42:18;;;;;;;34.60;26.13;;;15.70;99.90;;;;;;4951865;28;20866;-72
2023/09/27 02:44:44;;;;;;;37.00;26.70;;;15.70;99.90;;;;;;4953462;29;20214;-74
2023/09/27 02:47:10;;;;;;;36.38;26.42;;;15.70;99.90;;;;;;4936225;29;20242;-74
2023/09/27 02:49:36;;;;;;;36.17;26.70;;;15.70;99.90;;;;;;4946897;28;20187;-74
2023/09/27 02:52:03;;;;;;;34.30;26.55;;;15.60;99.90;;;;;;4967877;28;20189;-73
2023/09/27 02:54:29;;;;;;;36.63;27.38;;;15.60;99.90;;;;;;4953500;29;20197;-74
2023/09/27 02:56:55;;;;;;;37.28;27.08;;;15.60;99.90;;;;;;4953178;29;20612;-73
2023/09/27 02:59:21;;;;;;;35.95;27.63;;;15.60;99.90;;;;;;4966109;28;20207;-74
2023/09/27 03:01:48;;;;;;;36.30;27.75;;;15.60;99.90;;;;;;4934780;29;20194;-73
2023/09/27 03:04:15;;;;;;;41.55;27.67;;;15.60;99.90;;;;;;4953432;29;20673;-72
2023/09/27 03:06:42;;;;;;;36.92;26.65;;;15.60;99.90;;;;;;4952935;29;20202;-73
2023/09/27 03:09:10;;;;;;;37.40;27.58;;;15.60;99.90;;;;;;4952951;29;20249;-74
2023/09/27 03:11:36;;;;;;;37.95;26.77;;;15.50;99.90;;;;;;4933438;29;20734;-75
2023/09/27 03:14:02;;;;;;;34.05;26.08;;;15.50;99.90;;;;;;4936335;29;20190;-72
2023/09/27 03:16:29;;;;;;;35.03;26.70;;;15.50;99.90;;;;;;4954195;28;20234;-73
2023/09/27 03:18:58;;;;;;;34.90;27.27;;;15.50;99.90;;;;;;4955185;29;20560;-74
2023/09/27 03:21:24;;;;;;;38.42;27.58;;;15.50;99.90;;;;;;4955226;29;20206;-73
2023/09/27 03:23:53;;;;;;;34.50;27.63;;;15.50;99.90;;;;;;4957449;29;20198;-74
2023/09/27 03:26:20;;;;;;;38.83;27.55;;;15.50;99.90;;;;;;4955749;28;20190;-73
2023/09/27 03:28:46;;;;;;;37.58;27.98;;;15.50;99.90;;;;;;4956954;29;20191;-74
2023/09/27 03:31:12;;;;;;;38.85;27.17;;;15.50;99.90;;;;;;4935183;29;20189;-74
2023/09/27 03:33:38;;;;;;;40.10;28.95;;;15.50;99.90;;;;;;4937567;29;20187;-73
2023/09/27 03:36:04;;;;;;;35.95;27.85;;;15.50;99.90;;;;;;4936161;29;20675;-74
2023/09/27 03:38:32;;;;;;;41.40;28.42;;;15.40;99.90;;;;;;4936011;29;20237;-74
2023/09/27 03:40:57;;;;;;;41.92;27.95;;;15.40;99.90;;;;;;4952662;29;20306;-74
2023/09/27 03:43:23;;;;;;;36.15;27.75;;;15.40;99.90;;;;;;4936405;29;20738;-75
2023/09/27 03:45:51;;;;;;;39.28;28.05;;;15.40;99.90;;;;;;4929818;29;20281;-73
2023/09/27 03:48:19;;;;;;;42.05;29.00;;;15.40;99.90;;;;;;4953364;29;20186;-74
2023/09/27 03:50:45;;;;;;;36.28;29.23;;;15.40;99.90;;;;;;4935969;29;20652;-74
2023/09/27 03:53:11;;;;;;;42.65;28.88;;;15.40;99.90;;;;;;4952948;28;20194;-73
2023/09/27 03:55:38;;;;;;;40.17;28.98;;;15.40;99.90;;;;;;4933472;29;20644;-73
2023/09/27 03:58:04;;;;;;;37.28;28.85;;;15.40;99.90;;;;;;4950837;28;20194;-74
2023/09/27 04:00:30;;;;;;;46.97;29.40;;;15.40;99.90;;;;;;4934309;29;20631;-74
2023/09/27 04:02:56;;;;;;;37.35;28.08;;;15.40;99.90;;;;;;4951056;29;20198;-73
2023/09/27 04:05:25;;;;;;;37.38;28.95;;;15.40;99.90;;;;;;4953600;28;20186;-73
2023/09/27 04:07:51;;;;;;;39.97;30.05;;;15.40;99.90;;;;;;4956205;29;20194;-74
2023/09/27 04:10:19;;;;;;;41.15;29.73;;;15.40;99.90;;;;;;4923471;29;20246;-72
2023/09/27 04:12:45;;;;;;;41.38;29.83;;;15.30;99.90;;;;;;4951376;29;20201;-73
2023/09/27 04:15:11;;;;;;;38.47;30.10;;;15.30;99.90;;;;;;4952380;29;20221;-73
2023/09/27 04:17:37;;;;;;;38.47;29.35;;;15.30;99.90;;;;;;4938794;29;20305;-73
2023/09/27 04:20:21;;;;;;;40.15;28.98;;;15.30;99.90;;;;;;4939463;29;20221;-74
2023/09/27 04:22:49;;;;;;;46.25;30.92;;;15.30;99.90;;;;;;4939061;29;20655;-74
2023/09/27 04:25:16;;;;;;;38.75;30.70;;;15.30;99.90;;;;;;4934480;29;20313;-75
2023/09/27 04:27:45;;;;;;;40.22;30.58;;;15.30;99.90;;;;;;4937337;29;20178;-74
2023/09/27 04:30:18;;;;;;;41.65;30.35;;;15.30;99.90;;;;;;4956181;29;20256;-73
2023/09/27 04:32:45;;;;;;;39.63;30.75;;;15.20;99.90;;;;;;4938914;29;20644;-73
2023/09/27 04:35:13;;;;;;;44.22;30.73;;;15.20;99.90;;;;;;4936712;29;20321;-73
2023/09/27 04:37:40;;;;;;;38.28;30.55;;;15.20;99.90;;;;;;4948569;29;20879;-75
2023/09/27 04:40:14;;;;;;;41.83;31.70;;;15.20;99.90;;;;;;4947034;29;20555;-74
2023/09/27 04:42:44;;;;;;;47.65;32.03;;;15.20;99.90;;;;;;4955408;28;20227;-73
2023/09/27 04:45:11;;;;;;;41.03;31.83;;;15.20;99.90;;;;;;4945588;29;20610;-73
2023/09/27 04:47:39;;;;;;;41.30;32.45;;;15.20;99.90;;;;;;4949170;29;20195;-74
2023/09/27 04:50:09;;;;;;;40.95;31.70;;;15.20;99.90;;;;;;4953754;29;20187;-74
2023/09/27 04:52:39;;;;;;;43.63;31.55;;;15.10;99.90;;;;;;4954210;29;20187;-74
2023/09/27 04:55:07;;;;;;;44.60;33.10;;;15.10;99.90;;;;;;4952253;29;20193;-74
2023/09/27 04:57:33;;;;;;;41.95;32.20;;;15.10;99.90;;;;;;4950499;29;20280;-74
2023/09/27 04:59:59;;;;;;;44.38;33.47;;;15.10;99.90;;;;;;4938118;29;21405;-74
2023/09/27 05:02:25;;;;;;;43.53;33.78;;;15.10;99.90;;;;;;4948670;29;20234;-73
2023/09/27 05:04:51;;;;;;;47.97;34.78;;;15.10;99.90;;;;;;4937861;29;20559;-73
2023/09/27 05:07:21;;;;;;;44.42;33.35;;;15.10;99.90;;;;;;4955251;29;20194;-73
2023/09/27 05:09:47;;;;;;;51.92;34.60;;;15.10;99.90;;;;;;4954908;29;20253;-73
2023/09/27 05:12:14;;;;;;;48.08;35.72;;;15.10;99.90;;;;;;4952737;29;20191;-74
2023/09/27 05:14:41;;;;;;;50.17;34.33;;;15.00;99.90;;;;;;4948792;29;20190;-73
2023/09/27 05:17:08;;;;;;;52.72;35.65;;;15.00;99.90;;;;;;4950729;29;20650;-73
2023/09/27 05:19:34;;;;;;;48.13;34.53;;;15.00;99.90;;;;;;4921692;29;20210;-74
2023/09/27 05:22:00;;;;;;;51.05;35.38;;;15.00;99.90;;;;;;4954332;29;20237;-74
2023/09/27 05:24:26;;;;;;;47.38;36.17;;;15.00;99.90;;;;;;4949199;29;20202;-75
2023/09/27 05:26:52;;;;;;;47.47;35.28;;;15.00;99.90;;;;;;4936443;29;20519;-75
2023/09/27 05:29:20;;;;;;;48.05;36.95;;;15.00;99.90;;;;;;4953657;29;20249;-74
2023/09/27 05:31:46;;;;;;;50.78;35.95;;;15.00;99.90;;;;;;4954512;29;20198;-74
2023/09/27 05:34:12;;;;;;;51.70;36.33;;;15.00;99.90;;;;;;4950346;29;20246;-74
2023/09/27 05:36:40;;;;;;;49.03;35.58;;;15.00;99.90;;;;;;4952916;29;20187;-75
2023/09/27 05:39:08;;;;;;;47.65;37.10;;;15.00;99.90;;;;;;4953807;28;20198;-77
2023/09/27 05:41:35;;;;;;;49.53;37.60;;;15.00;99.90;;;;;;4950349;29;20214;-75
2023/09/27 05:44:01;;;;;;;51.63;37.10;;;15.00;99.90;;;;;;4943824;29;20206;-75
2023/09/27 05:46:29;;;;;;;51.38;37.85;;;15.00;99.90;;;;;;4963439;28;20186;-76
2023/09/27 05:48:55;;;;;;;55.72;38.83;;;15.00;99.90;;;;;;4954601;29;20210;-74
2023/09/27 05:51:22;;;;;;;57.03;39.05;;;15.00;99.90;;;;;;4953070;29;20651;-74
2023/09/27 05:53:52;;;;;;;57.67;39.00;;;15.00;99.90;;;;;;4954233;29;20214;-74
2023/09/27 05:56:18;;;;;;;54.38;39.53;;;15.10;99.90;;;;;;4958872;28;20216;-74
2023/09/27 05:58:44;;;;;;;49.03;37.22;;;15.10;99.90;;;;;;4954799;28;20198;-74
2023/09/27 06:01:12;;;;;;;50.55;38.70;;;15.10;99.90;;;;;;4954126;29;20235;-73
2023/09/27 06:03:38;;;;;;;56.88;39.13;;;15.10;99.90;;;;;;4920620;29;20230;-73
2023/09/27 06:06:05;;;;;;;55.85;38.88;;;15.10;99.90;;;;;;4935588;29;20190;-74
2023/09/27 06:08:31;;;;;;;49.17;37.45;;;15.20;99.90;;;;;;4967623;28;20190;-72
2023/09/27 06:10:59;;;;;;;55.20;39.58;;;15.20;99.90;;;;;;4950647;29;20201;-73
2023/09/27 06:13:26;;;;;;;49.60;36.78;;;15.20;99.90;;;;;;4949988;29;20179;-73
2023/09/27 06:15:54;;;;;;;55.53;39.20;;;15.30;99.90;;;;;;4946912;29;20226;-74
2023/09/27 06:18:20;;;;;;;61.08;42.63;;;15.30;99.90;;;;;;4948354;29;20187;-75
2023/09/27 06:20:47;;;;;;;53.72;38.80;;;15.30;99.90;;;;;;4930936;29;20261;-74
2023/09/27 06:23:13;;;;;;;48.90;38.30;;;15.30;99.90;;;;;;4953349;29;20643;-73
2023/09/27 06:25:43;;;;;;;51.45;39.15;;;15.30;99.90;;;;;;4953710;29;20262;-74
2023/09/27 06:28:15;;;;;;;52.47;40.03;;;15.40;99.90;;;;;;4935683;29;20209;-75
2023/09/27 06:30:41;;;;;;;51.92;36.70;;;15.40;99.90;;;;;;4948710;29;20202;-72
2023/09/27 06:33:12;;;;;;;50.88;37.75;;;15.40;99.90;;;;;;4948293;29;20707;-73
2023/09/27 06:35:38;;;;;;;51.55;38.47;;;15.50;99.90;;;;;;4928367;29;20198;-72
2023/09/27 06:38:05;;;;;;;52.85;38.28;;;15.50;99.90;;;;;;4932371;29;20250;-74
2023/09/27 06:40:32;;;;;;;48.90;36.75;;;15.50;99.90;;;;;;4948929;29;20679;-75
2023/09/27 06:42:57;;;;;;;53.90;38.22;;;15.50;99.90;;;;;;4931435;29;20250;-75
2023/09/27 06:45:25;;;;;;;52.67;37.58;;;15.50;99.90;;;;;;4948050;29;20253;-74
2023/09/27 06:47:51;;;;;;;56.20;38.65;;;15.50;99.90;;;;;;4936254;29;20622;-74
2023/09/27 06:50:17;;;;;;;51.55;38.70;;;15.50;99.90;;;;;;4949830;28;20190;-71
2023/09/27 06:52:45;;;;;;;53.35;38.38;;;15.50;99.90;;;;;;4952164;29;20241;-75
2023/09/27 06:55:13;;;;;;;55.40;39.55;;;15.60;99.90;;;;;;4953599;29;20277;-74
2023/09/27 06:57:44;;;;;;;59.13;40.38;;;15.60;99.90;;;;;;4953136;29;20187;-74
2023/09/27 07:00:18;;;;;;;49.53;37.88;;;15.70;99.90;;;;;;4918568;29;20202;-74
2023/09/27 07:02:48;;;;;;;51.47;38.30;;;15.70;99.90;;;;;;4933612;29;20682;-74
2023/09/27 07:05:15;;;;;;;50.35;37.42;;;15.80;99.90;;;;;;4953602;29;20193;-73
2023/09/27 07:07:41;;;;;;;48.95;35.40;;;15.90;99.90;;;;;;4936345;29;20662;-73
2023/09/27 07:10:08;;;;;;;51.25;35.72;;;15.90;99.90;;;;;;4934255;29;20261;-74
2023/09/27 07:12:35;;;;;;;46.83;35.65;;;16.00;99.90;;;;;;4946711;29;20318;-74
2023/09/27 07:15:10;;;;;;;51.88;37.38;;;16.00;99.90;;;;;;4942013;29;20258;-73
2023/09/27 07:17:38;;;;;;;49.97;36.65;;;16.10;99.90;;;;;;4933440;29;20321;-73
2023/09/27 07:22:40;;;;;;;47.67;36.40;;;16.20;99.90;;;;;;4930006;28;20269;-73
2023/09/27 07:25:14;;;;;;;49.83;36.08;;;16.30;99.90;;;;;;4934193;29;20289;-73
2023/09/27 07:27:41;;;;;;;49.72;35.80;;;16.40;99.90;;;;;;4932683;29;20202;-69
2023/09/27 07:30:11;;;;;;;46.00;34.47;;;16.50;99.90;;;;;;4929172;29;20203;-69
2023/09/27 07:32:41;;;;;;;51.55;35.78;;;16.50;99.90;;;;;;4930455;29;20558;-69
2023/09/27 07:35:09;;;;;;;48.28;35.15;;;16.60;99.90;;;;;;4934309;29;20234;-71
2023/09/27 07:37:36;;;;;;;47.33;34.10;;;16.70;99.90;;;;;;4930871;29;20203;-71
2023/09/27 07:40:07;;;;;;;44.65;33.80;;;16.80;99.90;;;;;;4930130;29;20243;-75
2023/09/27 07:42:33;;;;;;;48.92;33.53;;;16.90;99.90;;;;;;4931463;29;20207;-70
2023/09/27 07:44:59;;;;;;;45.00;33.80;;;17.00;99.90;;;;;;4927968;29;20203;-68
2023/09/27 07:47:25;;;;;;;53.67;37.35;;;17.10;99.90;;;;;;4931409;29;20184;-70
2023/09/27 07:49:51;;;;;;;53.40;34.40;;;17.10;99.90;;;;;;4929411;29;20195;-70
2023/09/27 07:52:16;;;;;;;41.22;32.15;;;17.20;99.90;;;;;;4932746;29;20187;-71
2023/09/27 07:54:45;;;;;;;45.28;32.95;;;17.30;99.90;;;;;;4933080;29;20203;-70
2023/09/27 07:57:11;;;;;;;46.25;32.40;;;17.40;99.90;;;;;;4933007;29;20294;-69
2023/09/27 07:59:37;;;;;;;45.33;32.08;;;17.40;99.90;;;;;;4929719;29;20687;-69
2023/09/27 08:02:03;;;;;;;42.40;31.70;;;17.50;99.90;;;;;;4932764;29;20207;-69
2023/09/27 08:04:29;;;;;;;51.05;31.17;;;17.60;99.90;;;;;;4933315;29;20188;-69
2023/09/27 08:06:55;;;;;;;46.17;33.15;;;17.80;99.90;;;;;;4936229;29;20568;-70
2023/09/27 08:09:24;;;;;;;46.67;31.80;;;17.80;99.90;;;;;;4936572;29;20183;-71
2023/09/27 08:11:50;;;;;;;41.05;30.73;;;17.90;99.90;;;;;;4931741;29;20210;-68
2023/09/27 08:14:18;;;;;;;44.28;30.63;;;17.90;99.90;;;;;;4930253;29;20195;-69
2023/09/27 08:16:44;;;;;;;42.28;29.83;;;18.00;99.90;;;;;;4928444;29;20306;-69
2023/09/27 08:19:11;;;;;;;39.03;28.60;;;18.10;99.90;;;;;;4935338;29;20628;-69
2023/09/27 08:21:37;;;;;;;41.25;29.02;;;18.20;99.90;;;;;;4930800;29;20210;-69
2023/09/27 08:24:03;;;;;;;43.35;28.75;;;18.20;99.90;;;;;;4934841;29;20263;-69
2023/09/27 08:26:29;;;;;;;37.50;28.45;;;18.30;99.90;;;;;;4936230;29;20199;-70
2023/09/27 08:28:54;;;;;;;40.85;28.85;;;18.40;99.90;;;;;;4936429;29;20267;-70
2023/09/27 08:31:20;;;;;;;46.17;28.77;;;18.50;99.90;;;;;;4915339;29;20238;-69
2023/09/27 08:33:47;;;;;;;38.75;27.38;;;18.60;99.90;;;;;;4935193;29;20644;-70
2023/09/27 08:36:13;;;;;;;37.58;27.70;;;18.70;99.90;;;;;;4933991;29;20199;-71
2023/09/27 08:38:39;;;;;;;37.40;26.67;;;18.70;99.90;;;;;;4936276;29;20217;-70
2023/09/27 08:41:04;;;;;;;38.83;27.00;;;18.80;99.90;;;;;;4929020;29;20270;-68
2023/09/27 08:43:32;;;;;;;41.78;25.52;;;18.90;99.90;;;;;;4930178;29;20198;-67
2023/09/27 08:45:59;;;;;;;38.20;27.08;;;19.00;99.90;;;;;;4930094;29;20238;-69
2023/09/27 08:48:28;;;;;;;39.38;24.80;;;19.10;99.90;;;;;;4926361;29;20199;-68
2023/09/27 08:50:55;;;;;;;36.50;25.65;;;19.20;99.90;;;;;;4929033;29;20192;-67
2023/09/27 08:53:21;;;;;;;35.08;25.75;;;19.30;99.90;;;;;;4930793;29;20198;-67
2023/09/27 08:55:50;;;;;;;34.28;25.80;;;19.40;99.90;;;;;;4935161;29;20282;-73
2023/09/27 08:58:16;;;;;;;39.38;25.00;;;19.40;99.90;;;;;;4934802;29;20207;-69
2023/09/27 09:00:42;;;;;;;33.58;24.58;;;19.50;99.90;;;;;;4935635;29;20219;-69
2023/09/27 09:03:10;;;;;;;35.90;23.92;;;19.60;99.90;;;;;;4933526;29;20194;-69
2023/09/27 09:05:37;;;;;;;32.47;23.42;;;19.70;99.90;;;;;;4919328;29;20207;-68
2023/09/27 09:08:07;;;;;;;34.28;24.25;;;19.80;99.90;;;;;;4936605;29;20188;-70
2023/09/27 09:10:33;;;;;;;39.30;24.75;;;19.80;99.90;;;;;;4935683;29;20201;-69
2023/09/27 09:13:00;;;;;;;33.42;23.05;;;19.90;99.90;;;;;;4934516;29;20206;-67
2023/09/27 09:15:40;;;;;;;34.50;21.95;;;20.00;99.90;;;;;;4930894;29;20295;-70
2023/09/27 09:18:11;;;;;;;29.52;22.42;;;20.00;99.90;;;;;;4917248;29;20660;-69
2023/09/27 09:20:54;;;;;;;30.98;21.52;;;20.10;99.90;;;;;;4912820;29;20256;-69
2023/09/27 09:23:33;;;;;;;28.63;20.90;;;20.20;99.90;;;;;;4908358;29;20265;-70
2023/09/27 09:26:01;;;;;;;29.05;20.23;;;20.30;99.90;;;;;;4909875;29;20188;-70
2023/09/27 09:28:27;;;;;;;28.98;19.17;;;20.50;99.90;;;;;;4929723;29;20191;-70
2023/09/27 09:30:55;;;;;;;44.10;20.02;;;20.60;99.90;;;;;;4912689;29;20653;-69
2023/09/27 09:33:28;;;;;;;30.27;18.67;;;20.60;99.90;;;;;;4909976;29;20191;-70
2023/09/27 09:35:55;;;;;;;26.58;16.20;;;20.70;99.90;;;;;;4914850;29;20183;-69
2023/09/27 09:38:26;;;;;;;29.15;16.90;;;20.80;99.90;;;;;;4909938;29;20605;-69
2023/09/27 09:40:57;;;;;;;26.67;15.55;;;20.80;99.90;;;;;;4914794;29;20238;-70
2023/09/27 09:43:31;;;;;;;29.50;16.15;;;20.90;99.90;;;;;;4914786;29;20196;-69
2023/09/27 09:45:57;;;;;;;29.40;15.40;;;20.90;99.90;;;;;;4915483;29;20188;-70
2023/09/27 09:48:24;;;;;;;30.48;15.55;;;21.00;99.90;;;;;;4912252;29;20199;-71
2023/09/27 09:50:49;;;;;;;21.73;14.93;;;21.00;99.90;;;;;;4911308;29;20664;-70
2023/09/27 09:53:17;;;;;;;31.65;14.57;;;21.10;99.90;;;;;;4945774;29;20252;-70
2023/09/27 09:55:49;;;;;;;26.85;13.85;;;21.20;99.90;;;;;;4915858;29;20649;-70
2023/09/27 09:58:32;;;;;;;21.92;12.75;;;21.30;99.90;;;;;;4910602;29;20188;-70
2023/09/27 10:01:01;;;;;;;21.30;11.60;;;21.30;99.90;;;;;;4910119;29;20235;-70
2023/09/27 10:03:32;;;;;;;21.05;11.88;;;21.40;99.90;;;;;;4912668;29;20653;-70
2023/09/27 10:06:01;;;;;;;16.38;8.90;;;21.50;99.90;;;;;;4915882;29;20212;-69
2023/09/27 10:08:34;;;;;;;40.78;11.25;;;21.60;99.90;;;;;;4913209;29;20196;-69
2023/09/27 10:11:04;;;;;;;20.35;9.65;;;21.60;99.90;;;;;;4909388;29;20200;-70
2023/09/27 10:13:35;;;;;;;20.83;11.02;;;21.80;99.90;;;;;;4904622;29;20188;-70
2023/09/27 10:16:03;;;;;;;22.55;9.25;;;21.80;99.90;;;;;;4922831;29;20230;-71
2023/09/27 10:18:36;;;;;;;18.60;9.10;;;21.90;99.90;;;;;;4936233;29;20226;-69
2023/09/27 10:21:03;;;;;;;19.80;7.55;;;22.00;99.90;;;;;;4949393;29;20218;-70
2023/09/27 10:23:43;;;;;;;14.18;7.45;;;22.00;99.90;;;;;;4952833;29;20186;-69
2023/09/27 10:26:37;;;;;;;15.27;7.53;;;22.10;99.90;;;;;;4950104;28;20194;-70
2023/09/27 10:29:16;;;;;;;18.17;8.23;;;22.20;99.90;;;;;;4948077;29;20646;-69
2023/09/27 10:31:55;;;;;;;12.93;6.93;;;22.30;99.90;;;;;;4953337;29;20200;-69
2023/09/27 10:34:33;;;;;;;14.80;6.93;;;22.30;99.90;;;;;;4953010;29;20723;-70
2023/09/27 10:37:00;;;;;;;16.25;6.65;;;22.40;99.90;;;;;;4952578;29;20186;-70
2023/09/27 10:39:26;;;;;;;13.88;6.35;;;22.40;99.90;;;;;;4933134;29;20440;-72
2023/09/27 10:41:53;;;;;;;14.23;6.38;;;22.50;99.90;;;;;;4932023;29;20261;-69
2023/09/27 10:44:41;;;;;;;13.77;6.70;;;22.50;99.90;;;;;;4952707;29;20253;-71
2023/09/27 10:47:08;;;;;;;19.55;6.78;;;22.50;99.90;;;;;;4952437;29;20186;-69
2023/09/27 10:49:38;;;;;;;15.52;7.47;;;22.60;99.90;;;;;;4952233;29;20183;-70
2023/09/27 10:52:16;;;;;;;15.68;6.95;;;22.60;99.90;;;;;;4949589;29;20174;-70
2023/09/27 10:54:43;;;;;;;14.70;7.03;;;22.60;99.90;;;;;;4953373;29;20182;-70
2023/09/27 10:57:09;;;;;;;15.68;7.20;;;22.60;99.90;;;;;;4952887;29;20222;-69
2023/09/27 10:59:35;;;;;;;12.40;6.28;;;22.70;99.90;;;;;;4952620;29;20194;-71
2023/09/27 11:02:05;;;;;;;14.07;6.10;;;22.60;99.90;;;;;;4945937;29;20578;-69
2023/09/27 11:04:32;;;;;;;13.50;6.20;;;22.60;99.90;;;;;;4946778;29;20205;-70
2023/09/27 11:06:58;;;;;;;14.00;6.50;;;22.50;99.90;;;;;;4936309;29;20261;-69
2023/09/27 11:09:26;;;;;;;11.43;6.00;;;22.50;99.90;;;;;;4936102;29;20190;-70
2023/09/27 11:11:57;;;;;;;11.05;6.15;;;22.50;99.90;;;;;;4936123;29;20189;-70
2023/09/27 11:14:33;;;;;;;13.70;6.18;;;22.50;99.90;;;;;;4924763;29;20186;-70
2023/09/27 11:17:22;;;;;;;15.75;6.40;;;22.50;99.90;;;;;;4947414;29;20326;-70
2023/09/27 11:19:49;;;;;;;11.00;6.25;;;22.50;99.90;;;;;;4953163;29;20711;-71
2023/09/27 11:22:44;;;;;;;14.88;6.90;;;22.60;99.90;;;;;;4952982;29;20202;-69
2023/09/27 11:25:30;;;;;;;13.32;6.55;;;22.60;99.90;;;;;;4914389;29;20206;-68
2023/09/27 11:27:57;;;;;;;12.48;6.93;;;22.60;99.90;;;;;;4950419;29;20522;-70
2023/09/27 11:30:28;;;;;;;14.38;6.80;;;22.60;99.90;;;;;;4964887;28;20765;-70
2023/09/27 11:32:55;;;;;;;12.10;6.70;;;22.60;99.90;;;;;;4941458;29;20590;-69
2023/09/27 11:35:21;;;;;;;16.33;7.57;;;22.60;99.90;;;;;;4953607;29;20194;-70
2023/09/27 11:37:48;;;;;;;14.35;7.65;;;22.60;99.90;;;;;;4936994;29;20621;-70
2023/09/27 11:40:14;;;;;;;15.82;7.85;;;22.70;99.90;;;;;;4935602;29;20221;-70
2023/09/27 11:42:40;;;;;;;14.77;7.70;;;22.70;99.90;;;;;;4956481;29;20207;-69
2023/09/27 11:45:08;;;;;;;11.32;8.13;;;22.70;99.90;;;;;;4938679;29;20486;-69
2023/09/27 11:47:47;;;;;;;19.05;8.32;;;22.80;99.90;;;;;;4937675;29;20855;-70
2023/09/27 11:50:14;;;;;;;14.65;8.52;;;22.80;99.90;;;;;;4955470;29;20655;-69
2023/09/27 11:52:43;;;;;;;16.63;8.88;;;22.80;99.90;;;;;;4938854;29;20217;-69
2023/09/27 11:55:09;;;;;;;21.08;9.82;;;22.90;99.90;;;;;;4938851;29;20525;-70
2023/09/27 11:57:36;;;;;;;17.80;9.75;;;22.80;99.90;;;;;;4956103;29;20190;-68
2023/09/27 12:00:05;;;;;;;19.35;11.07;;;22.80;99.90;;;;;;4934398;29;20224;-70
2023/09/27 12:02:33;;;;;;;20.45;10.25;;;22.80;99.90;;;;;;4955381;29;20231;-69
2023/09/27 12:05:00;;;;;;;18.42;10.25;;;22.70;99.90;;;;;;4939101;29;20254;-69
2023/09/27 12:07:27;;;;;;;18.02;9.50;;;22.70;99.90;;;;;;4938639;29;20224;-69
2023/09/27 12:09:56;;;;;;;18.40;11.05;;;22.70;99.90;;;;;;4935853;29;20277;-69
2023/09/27 12:12:22;;;;;;;22.90;11.30;;;22.80;99.90;;;;;;4953159;29;20218;-70
2023/09/27 12:14:49;;;;;;;21.55;11.30;;;22.80;99.90;;;;;;4938681;29;20237;-71
2023/09/27 12:17:16;;;;;;;17.35;10.95;;;22.90;99.90;;;;;;4955216;29;20404;-69
2023/09/27 12:19:43;;;;;;;21.25;10.50;;;22.90;99.90;;;;;;4936906;29;20195;-70
2023/09/27 12:22:11;;;;;;;16.15;10.68;;;23.00;99.90;;;;;;4951869;29;20194;-71
2023/09/27 12:24:37;;;;;;;17.67;10.52;;;23.00;99.90;;;;;;4955235;29;20261;-70
2023/09/27 12:27:04;;;;;;;15.80;9.32;;;23.20;99.90;;;;;;4955309;29;20222;-69
2023/09/27 12:29:30;;;;;;;18.38;10.52;;;23.20;99.90;;;;;;4969777;28;20190;-71
2023/09/27 12:31:56;;;;;;;16.80;9.95;;;23.20;99.90;;;;;;4951293;29;20198;-70
2023/09/27 12:34:22;;;;;;;16.50;10.63;;;23.30;99.90;;;;;;4950155;29;20190;-71